createdAt,value
2023-11-20T00:04:22.331Z,6.70
2023-11-20T00:10:05.127Z,7.93
2023-11-20T00:15:29.768Z,8.87
2023-11-20T00:20:53.307Z,7.28
2023-11-20T00:26:16.927Z,9.02
2023-11-20T00:31:50.452Z,8.50
2023-11-20T00:37:16.152Z,8.35
2023-11-20T00:42:41.033Z,7.43
2023-11-20T00:48:06.728Z,8.02
2023-11-20T00:53:30.075Z,7.95
2023-11-20T00:58:53.579Z,8.18
2023-11-20T01:04:18.398Z,8.82
2023-11-20T01:09:42.716Z,7.77
2023-11-20T01:15:08.806Z,9.43
2023-11-20T01:20:33.946Z,10.60
2023-11-20T01:25:57.532Z,9.52
2023-11-20T01:31:21.109Z,10.60
2023-11-20T01:36:46.813Z,10.67
2023-11-20T01:42:10.521Z,10.75
2023-11-20T01:47:36.609Z,11.85
2023-11-20T01:53:04.724Z,11.68
2023-11-20T01:58:28.737Z,10.82
2023-11-20T02:03:59.777Z,9.47
2023-11-20T02:09:24.414Z,10.18
2023-11-20T02:14:47.954Z,10.27
2023-11-20T02:20:11.887Z,11.73
2023-11-20T02:25:36.722Z,11.32
2023-11-20T02:31:01.667Z,11.53
2023-11-20T02:36:26.235Z,10.38
2023-11-20T02:41:49.810Z,10.15
2023-11-20T02:47:14.611Z,9.70
2023-11-20T02:52:37.937Z,9.88
2023-11-20T02:58:02.572Z,8.50
2023-11-20T03:03:27.529Z,10.70
2023-11-20T03:08:51.011Z,10.60
2023-11-20T03:14:14.624Z,9.07
2023-11-20T03:19:39.424Z,10.43
2023-11-20T03:25:03.342Z,9.80
2023-11-20T03:30:27.039Z,9.27
2023-11-20T03:35:51.938Z,10.50
2023-11-20T03:41:17.187Z,10.88
2023-11-20T03:46:40.458Z,10.80
2023-11-20T03:52:05.730Z,10.57
2023-11-20T03:57:29.067Z,9.75
2023-11-20T04:02:52.725Z,10.38
2023-11-20T04:08:17.656Z,9.43
2023-11-20T04:13:41.233Z,8.93
2023-11-20T04:19:04.981Z,9.60
2023-11-20T04:24:30.575Z,8.57
2023-11-20T04:29:54.520Z,7.43
2023-11-20T04:35:18.197Z,8.63
2023-11-20T04:40:43.438Z,8.57
2023-11-20T04:46:09.814Z,9.73
2023-11-20T04:51:33.525Z,8.95
2023-11-20T04:56:58.172Z,8.90
2023-11-20T05:02:21.689Z,8.30
2023-11-20T05:07:45.288Z,7.78
2023-11-20T05:13:10.252Z,8.23
2023-11-20T05:18:33.689Z,6.57
2023-11-20T05:23:57.227Z,7.95
2023-11-20T05:29:22.213Z,8.02
2023-11-20T05:34:45.759Z,7.93
2023-11-20T05:40:10.718Z,8.03
2023-11-20T05:45:35.388Z,8.18
2023-11-20T05:50:58.768Z,7.43
2023-11-20T05:56:22.275Z,6.95
2023-11-20T06:01:47.425Z,7.20
2023-11-20T06:13:00.081Z,7.15
2023-11-20T06:18:25.700Z,7.63
2023-11-20T06:23:55.284Z,8.38
2023-11-20T06:29:19.178Z,8.38
2023-11-20T06:34:45.047Z,7.63
2023-11-20T06:47:57.444Z,8.85
2023-11-20T06:54:53.880Z,8.50
2023-11-20T07:14:17.230Z,6.35
2023-11-20T07:34:04.432Z,8.98
2023-11-20T07:39:51.003Z,9.53
2023-11-20T07:45:15.605Z,14.52
2023-11-20T07:50:47.522Z,9.45
2023-11-20T07:56:11.770Z,7.93
2023-11-20T08:01:36.074Z,7.55
2023-11-20T08:07:14.482Z,14.23
2023-11-20T08:13:15.581Z,7.85
2023-11-20T08:18:42.825Z,5.10
2023-11-20T08:24:10.340Z,6.70
2023-11-20T08:29:33.637Z,7.43
2023-11-20T08:34:57.920Z,8.63
2023-11-20T08:40:28.205Z,8.68
2023-11-20T08:46:09.158Z,8.70
2023-11-20T08:51:49.241Z,7.50
2023-11-20T08:57:26.043Z,7.10
2023-11-20T09:02:51.398Z,10.70
2023-11-20T09:08:19.586Z,6.72
2023-11-20T09:13:47.730Z,5.90
2023-11-20T09:19:14.391Z,5.45
2023-11-20T09:24:46.929Z,8.43
2023-11-20T09:30:36.897Z,5.10
2023-11-20T09:36:15.425Z,7.00
2023-11-20T09:41:43.226Z,4.15
2023-11-20T09:47:11.268Z,4.70
2023-11-20T09:52:40.332Z,5.65
2023-11-20T09:58:09.263Z,6.43
2023-11-20T10:03:41.767Z,4.20
2023-11-20T10:09:38.011Z,5.00
2023-11-20T10:15:02.393Z,4.50
2023-11-20T10:20:54.520Z,5.43
2023-11-20T10:26:26.433Z,6.17
2023-11-20T10:31:55.638Z,8.52
2023-11-20T10:37:59.321Z,5.63
2023-11-20T10:43:35.931Z,11.70
2023-11-20T10:49:11.476Z,7.35
2023-11-20T10:54:52.250Z,4.93
2023-11-20T11:00:19.065Z,3.90
2023-11-20T11:05:49.743Z,6.50
2023-11-20T11:12:02.483Z,4.45
2023-11-20T11:17:57.296Z,4.35
2023-11-20T11:23:49.545Z,5.53
2023-11-20T11:29:28.802Z,7.78
2023-11-20T11:35:31.639Z,8.07
2023-11-20T11:41:27.613Z,5.25
2023-11-20T11:46:58.882Z,4.60
2023-11-20T11:52:28.678Z,5.10
2023-11-20T11:58:01.053Z,5.65
2023-11-20T12:03:43.565Z,7.25
2023-11-20T12:09:10.729Z,8.68
2023-11-20T12:14:40.933Z,6.15
2023-11-20T12:20:10.483Z,7.07
2023-11-20T12:26:18.502Z,8.20
2023-11-20T12:31:57.717Z,9.20
2023-11-20T12:37:45.139Z,7.03
2023-11-20T12:43:11.046Z,5.80
2023-11-20T12:49:01.650Z,7.80
2023-11-20T12:54:32.198Z,7.57
2023-11-20T12:59:56.430Z,7.53
2023-11-20T13:05:25.405Z,6.65
2023-11-20T13:10:56.345Z,6.35
2023-11-20T13:16:27.495Z,6.67
2023-11-20T13:22:02.646Z,8.73
2023-11-20T13:27:28.019Z,9.20
2023-11-20T13:32:55.753Z,13.13
2023-11-20T13:38:20.288Z,10.63
2023-11-20T13:43:46.023Z,10.00
2023-11-20T13:49:09.783Z,6.25
2023-11-20T13:54:35.404Z,6.22
2023-11-20T14:00:09.720Z,10.50
2023-11-20T14:05:43.714Z,7.38
2023-11-20T14:11:10.715Z,10.50
2023-11-20T14:16:43.011Z,25.73
2023-11-20T14:22:08.602Z,20.83
2023-11-20T14:27:31.815Z,10.48
2023-11-20T14:32:58.164Z,7.60
2023-11-20T14:38:43.988Z,14.33
2023-11-20T14:44:08.985Z,7.03
2023-11-20T14:49:40.489Z,9.30
2023-11-20T14:55:08.843Z,8.02
2023-11-20T15:00:35.442Z,8.45
2023-11-20T15:06:00.805Z,10.63
2023-11-20T15:11:26.987Z,18.30
2023-11-20T15:16:50.278Z,15.68
2023-11-20T15:22:15.159Z,13.52
2023-11-20T15:27:45.018Z,7.35
2023-11-20T15:33:08.528Z,10.20
2023-11-20T15:38:33.373Z,11.32
2023-11-20T15:43:56.698Z,12.52
2023-11-20T15:49:20.014Z,14.18
2023-11-20T15:54:44.883Z,11.60
2023-11-20T16:00:10.412Z,20.67
2023-11-20T16:05:36.252Z,12.98
2023-11-20T16:11:00.968Z,16.42
2023-11-20T16:16:24.283Z,5.28
2023-11-20T16:21:47.928Z,6.90
2023-11-20T16:27:13.461Z,9.83
2023-11-20T16:32:36.585Z,8.55
2023-11-20T16:37:59.770Z,7.53
2023-11-20T16:43:24.551Z,4.95
2023-11-20T16:48:47.686Z,5.60
2023-11-20T16:54:10.776Z,6.30
2023-11-20T16:59:35.384Z,5.65
2023-11-20T17:05:00.357Z,5.85
2023-11-20T17:10:27.089Z,7.80
2023-11-20T17:15:51.778Z,10.15
2023-11-20T17:21:17.706Z,9.53
2023-11-20T17:26:41.976Z,7.68
2023-11-20T17:32:07.668Z,8.27
2023-11-20T17:37:30.934Z,9.00
2023-11-20T17:42:54.356Z,9.93
2023-11-20T17:48:19.016Z,4.40
2023-11-20T17:53:42.258Z,5.60
2023-11-20T17:59:08.714Z,6.82
2023-11-20T18:04:36.370Z,6.07
2023-11-20T18:10:00.260Z,6.88
2023-11-20T18:15:25.310Z,10.47
2023-11-20T18:20:50.260Z,8.70
2023-11-20T18:26:13.325Z,8.32
2023-11-20T18:31:36.459Z,12.45
2023-11-20T18:37:01.512Z,6.40
2023-11-20T18:42:25.018Z,7.87
2023-11-20T18:47:48.483Z,8.38
2023-11-20T18:53:13.200Z,8.68
2023-11-20T18:58:36.573Z,7.95
2023-11-20T19:03:59.754Z,9.55
2023-11-20T19:09:24.883Z,8.57
2023-11-20T19:14:49.346Z,8.50
2023-11-20T19:20:13.637Z,10.32
2023-11-20T19:25:39.017Z,10.68
2023-11-20T19:31:02.159Z,9.43
2023-11-20T19:36:28.973Z,10.77
2023-11-20T19:41:53.383Z,8.63
2023-11-20T19:47:16.720Z,10.60
2023-11-20T19:52:39.925Z,9.90
2023-11-20T19:58:04.611Z,10.27
2023-11-20T20:03:27.919Z,13.33
2023-11-20T20:08:51.154Z,15.85
2023-11-20T20:14:16.023Z,12.48
2023-11-20T20:19:39.252Z,10.30
2023-11-20T20:25:02.968Z,10.35
2023-11-20T20:30:28.138Z,9.50
2023-11-20T20:35:51.370Z,9.50
2023-11-20T20:41:14.689Z,13.07
2023-11-20T20:46:39.396Z,16.38
2023-11-20T20:52:03.231Z,14.13
2023-11-20T20:57:26.882Z,12.53
2023-11-20T21:02:51.768Z,10.95
2023-11-20T21:08:15.118Z,12.68
2023-11-20T21:13:38.801Z,12.70
2023-11-20T21:19:03.680Z,13.35
2023-11-20T21:24:26.987Z,11.90
2023-11-20T21:29:50.129Z,11.13
2023-11-20T21:35:14.646Z,12.38
2023-11-20T21:40:37.617Z,10.05
2023-11-20T21:46:00.844Z,10.63
2023-11-20T21:51:25.411Z,9.40
2023-11-20T21:56:48.747Z,9.70
2023-11-20T22:02:12.214Z,10.30
2023-11-20T22:07:36.906Z,10.10
2023-11-20T22:12:59.954Z,9.88
2023-11-20T22:18:23.442Z,10.67
2023-11-20T22:23:48.233Z,10.85
2023-11-20T22:29:11.211Z,11.45
2023-11-20T22:34:35.621Z,11.32
2023-11-20T22:40:00.474Z,10.95
2023-11-20T22:45:23.784Z,10.40
2023-11-20T22:50:46.873Z,9.80
2023-11-20T22:56:11.900Z,10.77
2023-11-20T23:01:35.207Z,10.05
2023-11-20T23:06:58.584Z,12.05
2023-11-20T23:12:23.319Z,11.67
2023-11-20T23:17:46.769Z,11.07
2023-11-20T23:23:10.283Z,12.88
2023-11-20T23:28:38.344Z,9.57
2023-11-20T23:34:01.594Z,9.32
2023-11-20T23:39:24.849Z,9.37
2023-11-20T23:44:49.549Z,10.35
2023-11-20T23:50:13.015Z,10.20
2023-11-20T23:55:36.209Z,10.07
